createdAt,value
2023-02-21T00:01:10.966Z,73.54814
2023-02-21T00:06:12.748Z,73.76878
2023-02-21T00:11:14.721Z,74.99405
2023-02-21T00:16:16.565Z,75.78681
2023-02-21T00:21:18.416Z,76.0479
2023-02-21T00:26:20.027Z,75.27377
2023-02-21T00:31:21.768Z,76.01764
2023-02-21T00:36:23.684Z,75.75227
2023-02-21T00:41:25.340Z,75.77448
2023-02-21T00:46:26.939Z,75.73549
2023-02-21T00:51:28.690Z,75.4835
2023-02-21T00:56:30.397Z,73.98684
2023-02-21T01:01:32.058Z,73.66185
2023-02-21T01:06:33.895Z,73.02795
2023-02-21T01:11:35.574Z,72.28427
2023-02-21T01:16:37.266Z,71.75608
2023-02-21T01:21:39.032Z,74.97939
2023-02-21T01:26:40.748Z,73.46244
2023-02-21T01:31:42.459Z,76.40141
2023-02-21T01:36:44.184Z,76.79762
2023-02-21T01:41:45.832Z,75.34144
2023-02-21T01:46:47.514Z,70.62346
2023-02-21T01:51:49.228Z,70.61083
2023-02-21T01:56:50.880Z,68.81465
2023-02-21T02:01:52.590Z,72.02986
2023-02-21T02:06:54.588Z,73.99856
2023-02-21T02:11:56.196Z,74.01596
2023-02-21T02:16:57.793Z,71.77963
2023-02-21T02:21:59.651Z,73.61377
2023-02-21T02:27:01.957Z,71.8482
2023-02-21T02:32:03.717Z,76.05326
2023-02-21T02:37:05.537Z,75.18523
2023-02-21T02:42:07.200Z,73.23048
2023-02-21T02:47:08.852Z,74.09778
2023-02-21T02:52:10.579Z,76.97637
2023-02-21T02:57:12.244Z,78.65432
2023-02-21T03:02:13.995Z,80.71514
2023-02-21T03:07:15.740Z,74.30788
2023-02-21T03:12:17.476Z,75.46688
2023-02-21T03:17:19.140Z,76.26139
2023-02-21T03:22:21.017Z,74.80515
2023-02-21T03:27:22.817Z,73.30434
2023-02-21T03:32:24.683Z,73.36282
2023-02-21T03:37:26.390Z,72.03445
2023-02-21T03:42:28.019Z,76.85054
2023-02-21T03:47:29.704Z,75.36699
2023-02-21T03:52:31.411Z,81.34819
2023-02-21T03:57:33.066Z,85.16905
2023-02-21T04:02:34.736Z,76.99205
2023-02-21T04:07:36.507Z,77.67964
2023-02-21T04:12:38.061Z,75.57672
2023-02-21T04:17:39.743Z,77.12332
2023-02-21T04:22:41.394Z,79.20989
2023-02-21T04:27:43.020Z,84.2399
2023-02-21T04:32:44.776Z,82.89657
2023-02-21T04:37:46.508Z,86.14071
2023-02-21T04:42:48.151Z,79.72995
2023-02-21T04:47:49.984Z,82.28919
2023-02-21T04:52:51.705Z,88.10603
2023-02-21T04:57:53.342Z,86.63099
2023-02-21T05:02:55.003Z,82.94668
2023-02-21T05:07:56.933Z,80.91432
2023-02-21T05:12:58.565Z,86.96772
2023-02-21T05:18:00.186Z,78.58797
2023-02-21T05:23:11.727Z,78.98975
2023-02-21T05:28:15.068Z,79.23778
2023-02-21T05:33:16.696Z,77.9569
2023-02-21T05:38:18.582Z,78.27812
2023-02-21T05:43:20.195Z,77.79245
2023-02-21T05:48:21.845Z,80.16047
2023-02-21T05:53:23.611Z,77.58356
2023-02-21T05:58:25.349Z,76.51507
2023-02-21T06:03:27.115Z,76.63101
2023-02-21T06:08:28.823Z,79.87416
2023-02-21T06:13:32.170Z,84.66869
2023-02-21T06:18:34.566Z,77.40781
2023-02-21T06:23:36.341Z,80.44857
2023-02-21T06:28:37.940Z,76.70026
2023-02-21T06:33:39.638Z,77.83565
2023-02-21T06:38:41.325Z,79.17539
2023-02-21T06:43:42.978Z,82.40385
2023-02-21T06:48:44.610Z,80.79984
2023-02-21T06:53:46.314Z,82.4043
2023-02-21T06:58:48.045Z,81.36709
2023-02-21T07:03:49.665Z,79.66226
2023-02-21T07:08:51.396Z,81.16261
2023-02-21T07:13:53.038Z,89.88082
2023-02-21T07:18:54.711Z,86.3359
2023-02-21T07:23:56.504Z,85.59993
2023-02-21T07:28:58.131Z,84.94776
2023-02-21T07:33:59.797Z,79.87455
2023-02-21T07:39:01.608Z,80.59804
2023-02-21T07:44:03.274Z,78.32237
2023-02-21T07:49:04.882Z,79.45328
2023-02-21T07:54:06.586Z,79.13647
2023-02-21T07:59:08.258Z,82.68171
2023-02-21T08:04:09.942Z,82.39895
2023-02-21T08:09:11.658Z,81.2795
2023-02-21T08:14:13.277Z,82.95953
2023-02-21T08:19:14.874Z,79.99194
2023-02-21T08:24:16.656Z,85.5695
2023-02-21T08:29:18.358Z,87.69837
2023-02-21T08:34:20.163Z,87.10167
2023-02-21T08:39:21.887Z,84.94027
2023-02-21T08:44:23.551Z,81.23418
2023-02-21T08:49:25.156Z,86.30644
2023-02-21T08:54:26.904Z,80.63394
2023-02-21T08:59:28.470Z,82.35611
2023-02-21T09:04:30.066Z,84.71328
2023-02-21T09:09:31.727Z,91.31928
2023-02-21T09:14:33.325Z,93.91309
2023-02-21T09:19:34.892Z,88.2246
2023-02-21T09:24:36.922Z,87.82439
2023-02-21T09:29:45.814Z,85.71006
2023-02-21T09:34:48.448Z,84.84882
2023-02-21T09:39:50.201Z,82.17981
2023-02-21T09:44:51.850Z,82.43803
2023-02-21T09:49:53.475Z,79.83442
2023-02-21T09:54:55.306Z,84.93949
2023-02-21T09:59:56.846Z,84.70645
2023-02-21T10:04:58.501Z,82.33837
2023-02-21T10:10:00.552Z,88.51607
2023-02-21T10:15:02.292Z,90.73671
2023-02-21T10:20:03.952Z,88.15801
2023-02-21T10:25:05.721Z,83.94461
2023-02-21T10:30:07.395Z,86.98635
2023-02-21T10:35:09.060Z,82.10974
2023-02-21T10:40:10.838Z,81.00597
2023-02-21T10:45:12.444Z,84.67508
2023-02-21T10:50:14.091Z,84.67411
2023-02-21T10:55:31.347Z,86.39997
2023-02-21T11:00:33.888Z,83.62268
2023-02-21T11:05:35.488Z,79.40306
2023-02-21T11:10:37.245Z,78.83801
2023-02-21T11:15:38.873Z,80.84881
2023-02-21T11:20:40.548Z,83.00332
2023-02-21T11:25:42.322Z,82.4414
2023-02-21T11:30:44.170Z,82.43709
2023-02-21T11:35:45.861Z,86.13553
2023-02-21T11:40:47.615Z,89.39759
2023-02-21T11:45:49.267Z,88.45702
2023-02-21T11:50:50.976Z,86.47006
2023-02-21T11:55:52.730Z,83.91255
2023-02-21T12:00:54.325Z,81.32568
2023-02-21T12:05:55.974Z,89.46493
2023-02-21T12:10:58.735Z,90.60066
2023-02-21T12:16:00.356Z,89.04034
2023-02-21T12:21:01.970Z,88.07479
2023-02-21T12:26:03.809Z,90.16712
2023-02-21T12:31:05.510Z,84.21454
2023-02-21T12:36:07.153Z,88.41347
2023-02-21T12:41:08.853Z,87.59148
2023-02-21T12:46:10.516Z,84.09426
2023-02-21T12:51:12.155Z,91.431
2023-02-21T12:56:14.064Z,86.40099
2023-02-21T13:01:16.856Z,85.84039
2023-02-21T13:06:19.362Z,84.93992
2023-02-21T13:11:21.369Z,85.61924
2023-02-21T13:16:23.049Z,85.75448
2023-02-21T13:21:24.671Z,83.98444
2023-02-21T13:26:26.389Z,81.46338
2023-02-21T13:31:28.216Z,82.26779
2023-02-21T13:36:29.886Z,83.43161
2023-02-21T13:41:31.725Z,84.11757
2023-02-21T13:46:33.349Z,82.53619
2023-02-21T13:51:35.271Z,94.01199
2023-02-21T13:56:37.011Z,85.41392
2023-02-21T14:01:38.591Z,84.9909
2023-02-21T14:06:40.180Z,84.75357
2023-02-21T14:11:41.907Z,90.63731
2023-02-21T14:16:43.585Z,87.1651
2023-02-21T14:21:45.421Z,86.02107
2023-02-21T14:26:47.099Z,83.94758
2023-02-21T14:31:48.844Z,82.47508
2023-02-21T14:36:50.610Z,85.70857
2023-02-21T14:41:52.306Z,88.71409
2023-02-21T14:46:54.639Z,86.28959
2023-02-21T14:51:56.272Z,86.83578
2023-02-21T14:56:58.009Z,87.77744
2023-02-21T15:01:59.777Z,82.98488
2023-02-21T15:07:01.404Z,85.72027
2023-02-21T15:12:03.180Z,86.58451
2023-02-21T15:17:04.775Z,89.82211
2023-02-21T15:22:06.375Z,88.29094
2023-02-21T15:27:08.112Z,82.78062
2023-02-21T15:32:09.983Z,81.36401
2023-02-21T15:37:11.633Z,79.87851
2023-02-21T15:42:13.352Z,82.12717
2023-02-21T15:47:14.954Z,82.96776
2023-02-21T15:52:16.583Z,80.99952
2023-02-21T15:57:18.487Z,79.81385
2023-02-21T16:02:20.477Z,82.24218
2023-02-21T16:07:22.119Z,84.33071
2023-02-21T16:12:23.807Z,82.37527
2023-02-21T16:17:25.451Z,82.98706
2023-02-21T16:22:27.100Z,82.94264
2023-02-21T16:27:28.906Z,81.21494
2023-02-21T16:32:30.676Z,79.07903
2023-02-21T16:37:32.387Z,88.14919
2023-02-21T16:42:34.094Z,83.22604
2023-02-21T16:47:35.718Z,82.77128
2023-02-21T16:52:37.361Z,86.64072
2023-02-21T16:57:39.125Z,83.23543
2023-02-21T17:02:40.824Z,82.61031
2023-02-21T17:07:42.591Z,82.54263
2023-02-21T17:12:44.369Z,79.29745
2023-02-21T17:17:52.777Z,78.72401
2023-02-21T17:22:55.431Z,80.93108
2023-02-21T17:27:57.229Z,82.72437
2023-02-21T17:32:58.908Z,80.85594
2023-02-21T17:38:00.576Z,78.36718
2023-02-21T17:43:02.293Z,80.54064
2023-02-21T17:48:04.211Z,83.22506
2023-02-21T17:53:05.995Z,81.37404
2023-02-21T17:58:07.712Z,78.93613
2023-02-21T18:03:09.319Z,77.73333
2023-02-21T18:08:10.933Z,77.70034
2023-02-21T18:13:12.754Z,77.36034
2023-02-21T18:18:14.453Z,78.60457
2023-02-21T18:23:16.046Z,74.9719
2023-02-21T18:28:17.828Z,74.12344
2023-02-21T18:33:19.468Z,74.57485
2023-02-21T18:38:21.164Z,71.55157
2023-02-21T18:43:23.229Z,70.33197
2023-02-21T18:48:24.873Z,72.64017
2023-02-21T18:53:26.592Z,72.65721
2023-02-21T18:58:28.337Z,70.43212
2023-02-21T19:03:29.944Z,72.92637
2023-02-21T19:08:31.555Z,72.34228
2023-02-21T19:13:33.233Z,72.33035
2023-02-21T19:18:34.825Z,72.91164
2023-02-21T19:23:36.516Z,73.21793
2023-02-21T19:28:38.297Z,76.53566
2023-02-21T19:33:39.964Z,78.50079
2023-02-21T19:38:41.612Z,79.67331
2023-02-21T19:43:43.305Z,78.2689
2023-02-21T19:48:44.892Z,79.43507
2023-02-21T19:53:46.547Z,77.61984
2023-02-21T19:58:48.281Z,82.24091
2023-02-21T20:03:50.149Z,85.33715
2023-02-21T20:08:51.899Z,86.10628
2023-02-21T20:13:53.702Z,91.62311
2023-02-21T20:18:55.405Z,93.18674
2023-02-21T20:23:57.025Z,92.05857
2023-02-21T20:28:58.820Z,87.57163
2023-02-21T20:34:00.526Z,82.46941
2023-02-21T20:39:02.188Z,82.75782
2023-02-21T20:44:04.030Z,86.0599
2023-02-21T20:49:05.634Z,83.56497
2023-02-21T20:54:07.324Z,80.72671
2023-02-21T20:59:09.067Z,88.94875
2023-02-21T21:04:10.762Z,88.11881
2023-02-21T21:09:12.528Z,91.07958
2023-02-21T21:14:16.091Z,87.43942
2023-02-21T21:19:17.934Z,83.87834
2023-02-21T21:24:19.547Z,82.75106
2023-02-21T21:29:21.311Z,82.57835
2023-02-21T21:34:22.931Z,83.97662
2023-02-21T21:39:24.814Z,86.434
2023-02-21T21:44:26.569Z,84.77445
2023-02-21T21:49:28.171Z,87.02304
2023-02-21T21:54:29.840Z,83.82477
2023-02-21T21:59:31.560Z,80.67045
2023-02-21T22:04:33.163Z,82.65073
2023-02-21T22:09:34.929Z,83.39791
2023-02-21T22:14:36.685Z,82.0849
2023-02-21T22:19:38.309Z,79.61798
2023-02-21T22:24:39.938Z,79.0219
2023-02-21T22:29:41.563Z,84.10095
2023-02-21T22:34:43.213Z,81.70203
2023-02-21T22:39:44.837Z,81.7457
2023-02-21T22:44:46.548Z,80.3801
2023-02-21T22:49:48.148Z,79.3231
2023-02-21T22:54:49.765Z,76.71326
2023-02-21T22:59:51.455Z,76.54509
2023-02-21T23:04:53.111Z,78.86161
2023-02-21T23:09:54.736Z,77.05358
2023-02-21T23:14:56.470Z,78.14858
2023-02-21T23:19:58.346Z,74.68462
2023-02-21T23:25:00.062Z,77.11351
2023-02-21T23:30:01.784Z,77.02327
2023-02-21T23:35:03.439Z,76.31172
2023-02-21T23:40:05.138Z,75.31656
2023-02-21T23:45:06.920Z,75.23682
2023-02-21T23:50:08.531Z,77.92201
2023-02-21T23:55:10.157Z,76.07984
